Time;durP1;ratioP1;P1;durP2;ratioP2;P2;SDS_P1;SDS_P2;PMS_P1;PMS_P2;Temp;Humidity;BMP_temperature;BMP_pressure;BME280_temperature;BME280_humidity;BME280_pressure;Samples;Min_cycle;Max_cycle;Signal;HPM_P1;HPM_P2
2021/03/05 00:00:20;;;;;;;38.15;16.73;;;9.10;99.90;;;;;;5001807;28;20045;-70
2021/03/05 00:03:25;;;;;;;35.38;17.73;;;9.10;99.90;;;;;;4999468;28;20045;-70
2021/03/05 00:06:29;;;;;;;38.63;18.52;;;9.20;99.90;;;;;;5018269;28;20045;-70
2021/03/05 00:09:34;;;;;;;32.53;16.73;;;9.20;99.90;;;;;;4987815;28;20044;-71
2021/03/05 00:12:38;;;;;;;33.45;16.65;;;9.20;99.90;;;;;;4986775;28;20045;-71
2021/03/05 00:15:45;;;;;;;32.63;16.73;;;9.20;99.90;;;;;;5065715;28;20118;-70
2021/03/05 00:18:49;;;;;;;31.98;17.40;;;9.30;99.90;;;;;;5007176;28;20043;-70
2021/03/05 00:21:54;;;;;;;32.55;17.40;;;9.30;99.90;;;;;;4972200;28;20046;-70
2021/03/05 00:24:58;;;;;;;25.30;15.88;;;9.30;99.90;;;;;;5015832;28;20038;-70
2021/03/05 00:28:02;;;;;;;28.35;15.70;;;9.40;99.90;;;;;;5009617;28;20044;-71
2021/03/05 00:31:06;;;;;;;33.22;15.65;;;9.40;99.90;;;;;;5007879;28;20046;-70
2021/03/05 00:34:11;;;;;;;30.70;16.13;;;9.40;99.90;;;;;;5022142;28;20050;-69
2021/03/05 00:37:16;;;;;;;32.53;16.15;;;9.40;99.90;;;;;;5008224;28;20041;-70
2021/03/05 00:40:21;;;;;;;28.85;16.10;;;9.40;99.90;;;;;;4985806;28;20065;-70
2021/03/05 00:43:25;;;;;;;32.85;16.65;;;9.40;99.90;;;;;;4990206;28;20049;-71
2021/03/05 00:46:31;;;;;;;34.03;17.00;;;9.40;99.90;;;;;;4989966;28;20528;-71
2021/03/05 00:49:36;;;;;;;35.92;16.17;;;9.30;99.90;;;;;;4978134;28;20528;-70
2021/03/05 00:52:41;;;;;;;35.10;16.95;;;9.30;99.90;;;;;;4989381;28;20074;-70
2021/03/05 00:55:46;;;;;;;32.97;16.92;;;9.30;99.90;;;;;;5034619;28;20033;-70
2021/03/05 00:58:55;;;;;;;29.95;16.02;;;9.20;99.90;;;;;;4989457;28;20049;-70
2021/03/05 01:02:05;;;;;;;35.72;18.02;;;9.10;99.90;;;;;;4982503;28;20041;-70
2021/03/05 01:05:10;;;;;;;37.85;17.77;;;9.10;99.90;;;;;;5078499;28;20035;-70
2021/03/05 01:08:14;;;;;;;32.72;18.00;;;9.10;99.90;;;;;;5016163;28;20051;-70
2021/03/05 01:11:24;;;;;;;35.00;16.55;;;9.10;99.90;;;;;;4976331;28;20054;-69
2021/03/05 01:14:29;;;;;;;31.08;16.60;;;9.00;99.90;;;;;;4986909;28;20046;-68
2021/03/05 01:17:33;;;;;;;32.42;17.45;;;9.00;99.90;;;;;;5035118;28;20657;-71
2021/03/05 01:20:37;;;;;;;45.88;18.05;;;9.00;99.90;;;;;;5028442;28;20096;-70
2021/03/05 01:23:42;;;;;;;33.58;18.00;;;9.10;99.90;;;;;;4989110;28;20056;-70
2021/03/05 01:26:46;;;;;;;31.55;17.10;;;9.10;99.90;;;;;;5008777;28;20046;-71
2021/03/05 01:29:51;;;;;;;38.55;18.17;;;9.10;99.90;;;;;;4996770;28;20046;-70
2021/03/05 01:32:55;;;;;;;36.38;17.38;;;8.80;99.90;;;;;;5009357;28;20053;-70
2021/03/05 01:36:00;;;;;;;32.97;16.90;;;8.60;99.90;;;;;;5032168;28;20039;-70
2021/03/05 01:39:05;;;;;;;35.17;18.48;;;8.60;99.90;;;;;;4982648;28;20538;-71
2021/03/05 01:42:09;;;;;;;29.20;16.90;;;8.60;99.90;;;;;;4986974;28;20041;-71
2021/03/05 01:45:18;;;;;;;31.38;16.95;;;8.70;99.90;;;;;;4991669;28;20046;-70
2021/03/05 01:48:23;;;;;;;33.70;16.85;;;8.80;99.90;;;;;;4988679;28;20073;-70
2021/03/05 01:51:31;;;;;;;32.95;17.17;;;8.70;99.90;;;;;;4978355;28;20066;-70
2021/03/05 01:54:36;;;;;;;33.17;16.13;;;8.70;99.90;;;;;;4988211;28;20496;-70
2021/03/05 01:57:41;;;;;;;32.70;16.88;;;8.70;99.90;;;;;;5011510;28;20795;-70
2021/03/05 02:01:03;;;;;;;42.97;18.70;;;8.80;99.90;;;;;;5018476;28;20045;-69
2021/03/05 02:04:09;;;;;;;29.57;17.37;;;8.50;99.90;;;;;;4996420;28;20053;-69
2021/03/05 02:07:13;;;;;;;42.88;20.58;;;8.30;99.90;;;;;;5024152;28;20047;-69
2021/03/05 02:10:17;;;;;;;35.83;18.60;;;8.20;99.90;;;;;;4981755;28;20041;-70
2021/03/05 02:13:22;;;;;;;36.40;18.00;;;8.20;99.90;;;;;;5048062;28;20042;-70
2021/03/05 02:16:39;;;;;;;37.05;18.25;;;8.20;99.90;;;;;;5016730;28;20056;-70
2021/03/05 02:20:05;;;;;;;36.45;19.60;;;8.20;99.90;;;;;;4991618;28;20070;-70
2021/03/05 02:23:37;;;;;;;37.78;19.33;;;8.20;99.90;;;;;;4988849;28;20049;-70
2021/03/05 02:26:53;;;;;;;31.58;17.48;;;8.20;99.90;;;;;;4989007;28;20041;-70
2021/03/05 02:30:16;;;;;;;36.40;20.15;;;8.30;99.90;;;;;;5039018;28;20049;-70
2021/03/05 02:33:35;;;;;;;31.92;17.77;;;8.30;99.90;;;;;;4988657;28;20503;-70
2021/03/05 02:36:53;;;;;;;32.00;17.17;;;8.30;99.90;;;;;;4988998;28;20504;-70
2021/03/05 02:40:00;;;;;;;33.30;18.40;;;8.30;99.90;;;;;;5013776;28;20408;-70
2021/03/05 02:43:09;;;;;;;34.70;17.90;;;8.20;99.90;;;;;;4977373;28;20492;-70
2021/03/05 02:46:13;;;;;;;36.35;17.85;;;8.20;99.90;;;;;;4993179;28;20041;-70
2021/03/05 02:49:20;;;;;;;36.42;17.50;;;8.20;99.90;;;;;;4976242;28;20078;-70
2021/03/05 02:52:26;;;;;;;34.15;17.88;;;8.20;99.90;;;;;;5039103;28;20045;-70
2021/03/05 02:55:32;;;;;;;29.67;16.38;;;8.20;99.90;;;;;;5052414;28;20042;-70
2021/03/05 02:58:41;;;;;;;34.05;17.50;;;8.20;99.90;;;;;;4983422;28;20046;-70
2021/03/05 03:01:47;;;;;;;29.33;15.25;;;8.40;99.90;;;;;;4990874;28;20500;-70
2021/03/05 03:04:55;;;;;;;27.08;14.98;;;8.50;99.90;;;;;;4987437;28;20062;-70
2021/03/05 03:08:01;;;;;;;32.20;14.80;;;8.60;99.90;;;;;;4993411;28;20657;-70
2021/03/05 03:11:06;;;;;;;30.65;15.60;;;8.60;99.90;;;;;;4985248;28;20049;-69
2021/03/05 03:14:14;;;;;;;25.38;15.00;;;8.60;99.90;;;;;;4981426;28;20073;-70
2021/03/05 03:17:18;;;;;;;38.70;18.95;;;8.70;99.90;;;;;;4974480;28;20045;-70
2021/03/05 03:20:25;;;;;;;32.08;19.52;;;8.00;99.90;;;;;;4997875;28;20049;-70
2021/03/05 03:23:30;;;;;;;33.85;16.73;;;7.80;99.90;;;;;;5058304;28;20076;-70
2021/03/05 03:26:38;;;;;;;40.92;21.42;;;7.80;99.90;;;;;;5023863;28;20058;-69
2021/03/05 03:29:43;;;;;;;56.28;23.58;;;7.70;99.90;;;;;;4978827;28;20053;-69
2021/03/05 03:32:52;;;;;;;36.00;20.75;;;7.50;99.90;;;;;;5007981;28;20042;-70
2021/03/05 03:35:56;;;;;;;37.97;18.45;;;7.50;99.90;;;;;;4976944;28;20402;-70
2021/03/05 03:39:00;;;;;;;40.50;18.45;;;7.60;99.90;;;;;;4982791;28;20045;-70
2021/03/05 03:42:05;;;;;;;45.25;20.95;;;7.70;99.90;;;;;;5014414;28;20041;-70
2021/03/05 03:45:12;;;;;;;40.10;18.15;;;7.80;99.90;;;;;;4995872;28;20055;-70
2021/03/05 03:48:16;;;;;;;33.38;16.95;;;7.90;99.90;;;;;;4986652;28;20417;-69
2021/03/05 03:51:23;;;;;;;33.20;16.25;;;7.90;99.90;;;;;;4993420;28;20046;-70
2021/03/05 03:54:30;;;;;;;39.15;16.83;;;7.90;99.90;;;;;;4997030;28;20500;-70
2021/03/05 03:57:40;;;;;;;33.13;16.40;;;8.00;99.90;;;;;;4985214;28;20038;-70
2021/03/05 04:00:46;;;;;;;31.30;16.17;;;8.20;99.90;;;;;;4985790;28;20053;-70
2021/03/05 04:03:53;;;;;;;37.75;18.25;;;8.20;99.90;;;;;;4994476;28;20049;-70
2021/03/05 04:07:01;;;;;;;29.90;17.73;;;8.00;99.90;;;;;;4989398;28;20037;-70
2021/03/05 04:10:07;;;;;;;29.75;15.95;;;8.00;99.90;;;;;;4981847;28;20058;-70
2021/03/05 04:13:14;;;;;;;32.95;16.63;;;8.20;99.90;;;;;;5005308;28;20037;-70
2021/03/05 04:16:18;;;;;;;34.35;20.17;;;8.30;99.90;;;;;;4989599;28;20057;-70
2021/03/05 04:19:24;;;;;;;40.60;20.83;;;8.20;99.90;;;;;;4990604;28;20046;-70
2021/03/05 04:22:28;;;;;;;41.50;21.80;;;7.80;99.90;;;;;;4984786;28;20045;-70
2021/03/05 04:25:33;;;;;;;37.75;19.58;;;7.60;99.90;;;;;;4994353;28;20399;-70
2021/03/05 04:28:37;;;;;;;33.78;18.27;;;7.70;99.90;;;;;;4989395;28;20037;-70
2021/03/05 04:31:41;;;;;;;34.00;18.08;;;7.80;99.90;;;;;;4981852;28;20065;-71
2021/03/05 04:34:46;;;;;;;41.20;19.65;;;7.90;99.90;;;;;;4987903;28;20037;-70
2021/03/05 04:37:50;;;;;;;35.58;17.92;;;7.90;99.90;;;;;;4979668;28;20053;-71
2021/03/05 04:40:55;;;;;;;31.58;17.17;;;8.00;99.90;;;;;;4976202;28;20046;-70
2021/03/05 04:44:00;;;;;;;37.75;17.88;;;7.90;99.90;;;;;;4982284;28;20046;-70
2021/03/05 04:47:04;;;;;;;41.20;19.20;;;8.00;99.90;;;;;;4979221;28;20046;-70
2021/03/05 04:50:08;;;;;;;43.67;20.63;;;8.00;99.90;;;;;;4975672;28;20037;-69
2021/03/05 04:53:13;;;;;;;37.95;20.02;;;8.00;99.90;;;;;;4985029;28;20041;-70
2021/03/05 04:56:19;;;;;;;41.20;20.88;;;7.90;99.90;;;;;;4984936;28;20037;-70
2021/03/05 04:59:25;;;;;;;41.35;22.73;;;7.80;99.90;;;;;;4978776;28;20045;-68
2021/03/05 05:02:29;;;;;;;42.92;23.88;;;7.70;99.90;;;;;;4987594;28;20042;-70
2021/03/05 05:05:36;;;;;;;52.75;26.10;;;7.20;99.90;;;;;;4989585;28;20057;-70
2021/03/05 05:08:41;;;;;;;48.92;25.98;;;7.20;99.90;;;;;;4987335;28;20049;-70
2021/03/05 05:11:45;;;;;;;48.63;26.67;;;7.20;99.90;;;;;;5017550;28;20057;-70
2021/03/05 05:14:50;;;;;;;49.03;26.27;;;7.30;99.90;;;;;;5020340;28;20306;-70
2021/03/05 05:17:54;;;;;;;45.60;24.73;;;7.30;99.90;;;;;;5009855;28;20500;-70
2021/03/05 05:20:59;;;;;;;52.58;24.98;;;7.40;99.90;;;;;;5028328;28;20046;-70
2021/03/05 05:24:04;;;;;;;48.30;25.98;;;7.40;99.90;;;;;;5018743;28;20070;-70
2021/03/05 05:27:09;;;;;;;45.88;22.83;;;7.50;99.90;;;;;;5016809;28;20051;-69
2021/03/05 05:30:14;;;;;;;44.20;23.67;;;7.60;99.90;;;;;;5026139;28;20228;-70
2021/03/05 05:33:19;;;;;;;44.20;22.45;;;7.50;99.90;;;;;;5038950;28;20064;-70
2021/03/05 05:36:23;;;;;;;41.63;21.88;;;7.60;99.90;;;;;;5037991;28;20038;-70
2021/03/05 05:39:28;;;;;;;40.30;20.83;;;7.70;99.90;;;;;;5007437;28;20556;-69
2021/03/05 05:42:32;;;;;;;42.13;21.30;;;7.70;99.90;;;;;;5013101;28;20059;-70
2021/03/05 05:45:37;;;;;;;39.53;23.88;;;7.80;99.90;;;;;;5036249;28;20413;-70
2021/03/05 05:48:45;;;;;;;43.95;23.00;;;7.60;99.90;;;;;;5033120;28;20049;-71
2021/03/05 05:51:52;;;;;;;47.92;25.63;;;7.60;99.90;;;;;;5022592;28;20116;-68
2021/03/05 05:54:59;;;;;;;47.10;24.38;;;7.50;99.90;;;;;;5036255;28;20035;-70
2021/03/05 05:58:05;;;;;;;45.75;26.08;;;7.40;99.90;;;;;;5029193;28;20065;-70
2021/03/05 06:01:15;;;;;;;48.45;25.58;;;7.40;99.90;;;;;;5028120;28;20407;-70
2021/03/05 06:04:20;;;;;;;45.85;24.70;;;7.50;99.90;;;;;;5035715;28;20047;-71
2021/03/05 06:07:25;;;;;;;47.15;23.73;;;7.60;99.90;;;;;;5044370;28;20055;-70
2021/03/05 06:10:29;;;;;;;44.95;24.23;;;7.70;99.90;;;;;;4985824;28;20385;-70
2021/03/05 06:13:34;;;;;;;48.25;26.05;;;7.70;99.90;;;;;;4975568;28;20045;-69
2021/03/05 06:16:58;;;;;;;54.10;25.88;;;7.70;99.90;;;;;;4974206;28;20046;-70
2021/03/05 06:20:03;;;;;;;51.28;24.40;;;7.80;99.90;;;;;;4979339;28;20494;-70
2021/03/05 06:23:11;;;;;;;47.85;24.20;;;7.80;99.90;;;;;;4970787;28;20042;-70
2021/03/05 06:26:15;;;;;;;49.67;24.77;;;7.90;99.90;;;;;;4968767;28;20386;-70
2021/03/05 06:29:22;;;;;;;48.00;24.35;;;8.00;99.90;;;;;;4978139;28;20050;-70
2021/03/05 06:32:39;;;;;;;44.28;26.00;;;8.00;99.90;;;;;;4975295;28;20075;-70
2021/03/05 06:35:44;;;;;;;48.10;24.25;;;8.10;99.90;;;;;;4982908;28;20047;-70
2021/03/05 06:38:48;;;;;;;44.38;26.00;;;8.10;99.90;;;;;;5006282;28;20773;-70
2021/03/05 06:42:19;;;;;;;45.05;23.73;;;8.10;99.90;;;;;;5017613;28;20061;-70
2021/03/05 06:45:35;;;;;;;48.53;26.15;;;8.00;99.90;;;;;;5029484;28;20049;-70
2021/03/05 06:48:54;;;;;;;47.15;25.25;;;7.90;99.90;;;;;;5018566;28;20390;-71
2021/03/05 06:51:59;;;;;;;48.53;24.27;;;7.90;99.90;;;;;;5025194;28;20048;-70
2021/03/05 06:55:06;;;;;;;43.97;23.40;;;7.90;99.90;;;;;;5019252;28;20042;-70
2021/03/05 06:58:11;;;;;;;48.38;25.58;;;8.00;99.90;;;;;;5035444;28;20055;-70
2021/03/05 07:01:15;;;;;;;49.25;24.80;;;8.10;99.90;;;;;;5009737;28;20049;-69
2021/03/05 07:04:30;;;;;;;45.30;25.38;;;8.20;99.90;;;;;;4983215;28;20057;-68
2021/03/05 07:07:49;;;;;;;47.33;25.25;;;8.20;99.90;;;;;;4975496;28;20038;-70
2021/03/05 07:10:53;;;;;;;44.05;23.80;;;8.20;99.90;;;;;;4975710;28;20514;-70
2021/03/05 07:13:57;;;;;;;50.40;25.42;;;8.20;99.90;;;;;;4972071;28;20501;-71
2021/03/05 07:17:02;;;;;;;42.28;23.70;;;8.10;99.90;;;;;;4982620;28;20058;-70
2021/03/05 07:20:07;;;;;;;45.28;24.75;;;8.10;99.90;;;;;;4974233;28;20485;-70
2021/03/05 07:23:13;;;;;;;55.85;29.75;;;8.40;99.90;;;;;;4968466;28;20038;-70
2021/03/05 07:26:52;;;;;;;51.70;26.25;;;8.50;99.90;;;;;;4974776;28;20511;-69
2021/03/05 07:29:58;;;;;;;42.00;23.20;;;8.50;99.90;;;;;;4980149;28;20045;-70
2021/03/05 07:33:04;;;;;;;44.75;22.20;;;8.80;99.90;;;;;;4977209;28;20050;-70
2021/03/05 07:36:09;;;;;;;46.10;20.85;;;9.00;99.90;;;;;;4979220;28;20046;-69
2021/03/05 07:39:21;;;;;;;39.65;20.52;;;9.20;99.90;;;;;;4977774;28;20530;-70
2021/03/05 07:42:27;;;;;;;37.08;20.45;;;9.50;99.90;;;;;;4978559;28;20065;-70
2021/03/05 07:45:35;;;;;;;36.08;19.52;;;9.70;99.90;;;;;;4993442;28;20037;-68
2021/03/05 07:48:39;;;;;;;35.55;20.55;;;9.90;99.90;;;;;;4983809;28;20041;-70
2021/03/05 07:51:44;;;;;;;43.88;23.92;;;10.30;99.90;;;;;;4991950;28;20038;-70
2021/03/05 07:54:49;;;;;;;45.40;24.50;;;10.60;99.90;;;;;;4977993;28;20046;-70
2021/03/05 07:57:54;;;;;;;42.72;24.77;;;10.90;99.90;;;;;;5029908;28;20065;-70
2021/03/05 08:00:58;;;;;;;36.70;20.75;;;10.40;99.90;;;;;;4983770;28;20037;-69
2021/03/05 11:36:51;;;;;;;19.98;10.05;;;22.60;77.20;;;;;;5091368;27;20397;-65
2021/03/05 11:39:57;;;;;;;18.55;10.18;;;25.20;71.10;;;;;;5084091;28;20040;-66
2021/03/05 11:43:03;;;;;;;21.92;11.30;;;20.70;75.00;;;;;;5068808;28;20039;-65
2021/03/05 11:46:08;;;;;;;18.20;9.48;;;17.80;84.60;;;;;;5084442;28;20043;-66
2021/03/05 11:49:13;;;;;;;15.77;10.02;;;19.50;83.10;;;;;;5082849;28;20051;-66
2021/03/05 11:52:17;;;;;;;14.68;9.43;;;17.70;82.30;;;;;;5084044;28;20047;-66
2021/03/05 11:55:21;;;;;;;15.35;9.48;;;17.40;87.50;;;;;;5077188;28;20055;-66
2021/03/05 11:58:25;;;;;;;14.85;9.25;;;17.00;87.10;;;;;;5072790;28;20407;-66
2021/03/05 12:01:30;;;;;;;19.83;9.85;;;16.50;88.80;;;;;;5082933;28;20407;-65
2021/03/05 12:04:34;;;;;;;26.40;10.13;;;16.90;90.00;;;;;;5077237;28;20040;-65
2021/03/05 12:07:38;;;;;;;16.23;9.38;;;18.60;87.00;;;;;;5083001;28;20620;-66
2021/03/05 12:10:43;;;;;;;16.55;9.63;;;19.00;85.30;;;;;;5088048;28;20031;-62
2021/03/05 12:13:48;;;;;;;20.83;9.40;;;17.90;87.80;;;;;;5088245;28;20043;-65
2021/03/05 12:16:52;;;;;;;22.27;7.90;;;19.60;83.40;;;;;;5086929;28;20039;-65
2021/03/05 12:19:56;;;;;;;15.00;7.28;;;22.00;78.00;;;;;;5076835;28;20042;-66
2021/03/05 12:23:01;;;;;;;17.67;6.97;;;25.40;71.20;;;;;;5082297;28;20056;-66
2021/03/05 12:26:05;;;;;;;13.10;6.60;;;25.00;70.30;;;;;;5080242;28;20040;-63
2021/03/05 12:29:09;;;;;;;18.27;7.10;;;26.80;65.90;;;;;;5080193;28;20031;-64
2021/03/05 12:32:13;;;;;;;12.73;6.85;;;28.60;64.60;;;;;;5077095;28;20527;-65
2021/03/05 12:35:18;;;;;;;13.18;7.50;;;28.30;61.60;;;;;;5081189;28;20047;-64
2021/03/05 12:38:23;;;;;;;10.77;6.78;;;29.10;60.70;;;;;;5068745;28;20051;-65
2021/03/05 12:41:27;;;;;;;11.50;8.02;;;26.00;62.50;;;;;;5068893;28;20051;-64
2021/03/05 12:44:31;;;;;;;16.50;8.45;;;23.00;66.50;;;;;;5071019;28;20051;-65
2021/03/05 12:47:36;;;;;;;17.85;8.35;;;20.90;72.30;;;;;;5067734;28;20043;-66
2021/03/05 12:50:40;;;;;;;16.65;9.30;;;18.90;76.20;;;;;;5069127;28;20511;-66
2021/03/05 12:53:45;;;;;;;16.02;8.40;;;19.10;80.20;;;;;;5066310;28;20408;-64
2021/03/05 12:56:50;;;;;;;15.40;7.90;;;19.90;76.30;;;;;;5066291;28;20048;-67
2021/03/05 12:59:53;;;;;;;13.43;9.13;;;19.90;74.80;;;;;;5066916;28;20081;-64
2021/03/05 13:02:58;;;;;;;16.17;9.20;;;19.80;75.60;;;;;;5072797;28;20047;-67
2021/03/05 13:06:02;;;;;;;16.08;9.27;;;18.30;79.10;;;;;;5070333;28;20043;-65
2021/03/05 13:09:06;;;;;;;19.45;9.48;;;18.60;81.80;;;;;;5068440;28;20046;-66
2021/03/05 13:12:11;;;;;;;18.67;8.93;;;17.80;82.80;;;;;;5065554;28;20031;-65
2021/03/05 13:15:15;;;;;;;18.17;8.80;;;17.80;81.10;;;;;;5067385;28;20055;-66
2021/03/05 13:18:20;;;;;;;17.45;9.93;;;17.90;80.00;;;;;;5068405;28;20039;-65
2021/03/05 13:21:24;;;;;;;18.20;9.43;;;18.70;82.20;;;;;;5069905;28;20047;-65
2021/03/05 13:24:28;;;;;;;17.00;9.02;;;17.90;81.60;;;;;;5067884;28;20039;-65
2021/03/05 13:27:32;;;;;;;21.80;9.60;;;17.80;81.70;;;;;;5067105;28;20035;-65
2021/03/05 13:30:37;;;;;;;16.63;8.55;;;17.40;82.60;;;;;;5068251;28;20039;-65
2021/03/05 13:33:41;;;;;;;15.63;8.18;;;17.00;83.60;;;;;;5068682;28;20114;-64
2021/03/05 13:36:49;;;;;;;21.27;8.38;;;16.30;85.40;;;;;;5074620;28;20046;-66
2021/03/05 13:39:53;;;;;;;18.90;9.63;;;16.30;85.90;;;;;;5074078;28;20070;-65
2021/03/05 13:42:58;;;;;;;19.70;10.13;;;16.20;87.40;;;;;;5077001;28;20043;-66
2021/03/05 13:46:02;;;;;;;21.30;10.57;;;16.00;87.00;;;;;;5076568;28;20051;-64
2021/03/05 13:49:07;;;;;;;11.65;8.20;;;17.30;84.70;;;;;;5067723;28;20051;-66
2021/03/05 13:52:11;;;;;;;11.80;7.18;;;19.30;80.10;;;;;;5070951;28;20043;-67
2021/03/05 13:55:15;;;;;;;16.55;8.70;;;21.70;76.20;;;;;;5068946;28;20043;-66
2021/03/05 13:58:19;;;;;;;17.60;8.75;;;20.40;76.40;;;;;;5066358;28;20407;-65
2021/03/05 14:01:24;;;;;;;16.75;9.15;;;19.50;78.90;;;;;;5069581;28;20052;-66
2021/03/05 14:04:28;;;;;;;17.17;8.75;;;18.10;81.60;;;;;;5063566;28;20511;-65
2021/03/05 14:07:32;;;;;;;19.33;9.07;;;17.30;82.40;;;;;;5063117;28;20048;-65
2021/03/05 14:10:36;;;;;;;19.63;9.55;;;17.60;83.30;;;;;;5065513;28;20047;-65
2021/03/05 14:13:40;;;;;;;17.13;9.25;;;17.40;84.90;;;;;;5068100;28;20044;-66
2021/03/05 14:16:45;;;;;;;19.73;10.70;;;16.40;87.20;;;;;;5065205;28;20048;-65
2021/03/05 14:19:49;;;;;;;17.45;9.35;;;15.90;88.40;;;;;;5060804;28;20059;-64
2021/03/05 14:22:54;;;;;;;21.25;10.93;;;15.90;89.30;;;;;;5064678;28;20055;-65
2021/03/05 14:25:58;;;;;;;24.20;10.68;;;15.50;90.60;;;;;;5068422;28;20039;-65
2021/03/05 14:29:03;;;;;;;17.08;10.55;;;15.10;92.00;;;;;;5065548;28;20043;-65
2021/03/05 14:32:08;;;;;;;23.27;11.73;;;14.60;92.60;;;;;;5063175;28;20035;-65
2021/03/05 14:35:17;;;;;;;24.75;12.93;;;13.90;93.80;;;;;;5067130;28;20051;-65
2021/03/05 14:38:21;;;;;;;24.20;12.75;;;13.70;95.00;;;;;;5068263;28;20519;-65
2021/03/05 14:41:25;;;;;;;31.02;13.07;;;13.40;96.30;;;;;;5068817;28;20047;-65
2021/03/05 14:44:30;;;;;;;21.80;13.80;;;13.40;96.80;;;;;;5062482;28;20063;-65
2021/03/05 14:47:35;;;;;;;29.60;12.93;;;13.40;97.80;;;;;;5058704;28;20047;-64
2021/03/05 14:50:40;;;;;;;22.75;13.25;;;13.20;99.00;;;;;;5061165;28;20040;-63
2021/03/05 14:53:44;;;;;;;29.50;13.85;;;13.30;99.40;;;;;;5064023;28;20408;-65
2021/03/05 14:56:49;;;;;;;25.10;13.65;;;13.30;99.60;;;;;;5065767;28;20420;-64
2021/03/05 14:59:54;;;;;;;24.50;13.32;;;13.30;99.90;;;;;;5063335;28;20040;-64
2021/03/05 15:02:58;;;;;;;32.28;14.40;;;13.20;99.90;;;;;;5065363;28;20051;-66
2021/03/05 15:06:02;;;;;;;21.88;13.88;;;13.30;99.90;;;;;;5065334;28;20043;-64
2021/03/05 15:09:06;;;;;;;22.92;13.40;;;13.40;99.90;;;;;;5064811;28;20044;-64
2021/03/05 15:12:11;;;;;;;20.00;12.70;;;13.50;99.90;;;;;;5065743;28;20036;-66
2021/03/05 15:15:16;;;;;;;29.48;13.73;;;13.60;99.90;;;;;;5065455;28;20518;-64
2021/03/05 15:18:20;;;;;;;29.85;14.43;;;13.50;99.90;;;;;;5061337;28;20062;-65
2021/03/05 15:21:25;;;;;;;23.77;13.43;;;13.50;99.90;;;;;;5067905;28;20048;-66
2021/03/05 15:24:30;;;;;;;24.55;13.93;;;13.60;99.90;;;;;;5067878;28;20063;-66
2021/03/05 15:27:34;;;;;;;21.48;13.38;;;13.60;99.90;;;;;;5067030;28;20051;-65
2021/03/05 15:30:38;;;;;;;28.83;14.90;;;13.70;99.90;;;;;;5064722;28;20043;-65
2021/03/05 15:33:43;;;;;;;27.33;14.40;;;13.20;99.90;;;;;;5060926;28;20035;-66
2021/03/05 15:36:48;;;;;;;29.92;14.45;;;13.20;99.90;;;;;;5069673;28;20055;-64
2021/03/05 15:39:53;;;;;;;29.15;16.23;;;13.30;99.90;;;;;;5075569;28;20039;-66
2021/03/05 15:42:57;;;;;;;35.15;16.10;;;13.40;99.90;;;;;;5066782;28;20051;-65
2021/03/05 15:46:01;;;;;;;26.08;14.77;;;13.20;99.90;;;;;;5071454;28;20518;-66
2021/03/05 15:49:06;;;;;;;31.13;15.30;;;13.10;99.90;;;;;;5070842;28;20044;-66
2021/03/05 15:52:10;;;;;;;28.98;14.52;;;13.10;99.90;;;;;;5063653;28;20043;-66
2021/03/05 15:55:15;;;;;;;26.08;15.13;;;13.00;99.90;;;;;;5058383;28;20396;-66
2021/03/05 15:58:19;;;;;;;25.92;15.85;;;13.10;99.90;;;;;;5054135;28;20047;-65
2021/03/05 16:01:24;;;;;;;27.92;15.65;;;13.20;99.90;;;;;;5060009;28;20044;-64
2021/03/05 16:04:28;;;;;;;31.20;15.82;;;13.20;99.90;;;;;;5069841;28;20047;-66
2021/03/05 16:07:34;;;;;;;34.10;15.77;;;13.30;99.90;;;;;;5073008;28;20048;-66
2021/03/05 16:10:38;;;;;;;33.25;15.80;;;13.30;99.90;;;;;;5074892;28;20403;-66
2021/03/05 16:13:43;;;;;;;30.73;16.20;;;13.40;99.90;;;;;;5079724;28;20040;-66
2021/03/05 16:16:49;;;;;;;36.58;17.58;;;13.20;99.90;;;;;;5078236;28;20059;-66
2021/03/05 16:19:53;;;;;;;25.95;15.80;;;12.80;99.90;;;;;;5058096;28;20039;-65
2021/03/05 16:22:58;;;;;;;27.95;16.13;;;12.50;99.90;;;;;;5070136;28;20535;-66
2021/03/05 16:26:02;;;;;;;27.98;15.57;;;12.40;99.90;;;;;;5067024;28;20043;-66
2021/03/05 16:29:06;;;;;;;25.50;15.43;;;12.30;99.90;;;;;;5061407;28;20447;-66
2021/03/05 16:32:10;;;;;;;27.95;17.48;;;12.30;99.90;;;;;;5070921;28;20036;-66
2021/03/05 16:35:15;;;;;;;31.77;18.08;;;12.20;99.90;;;;;;5051940;28;20048;-66
2021/03/05 16:38:20;;;;;;;29.88;16.83;;;12.20;99.90;;;;;;5064472;28;20040;-67
2021/03/05 16:41:24;;;;;;;28.58;17.25;;;12.10;99.90;;;;;;5066779;28;20396;-65
2021/03/05 16:44:30;;;;;;;27.17;16.70;;;12.20;99.90;;;;;;5065432;28;20099;-67
2021/03/05 16:47:34;;;;;;;26.10;17.00;;;12.10;99.90;;;;;;5067611;28;20053;-67
2021/03/05 16:50:39;;;;;;;37.20;18.15;;;12.00;99.90;;;;;;5068854;28;20043;-66
2021/03/05 16:53:43;;;;;;;50.30;24.02;;;11.90;99.90;;;;;;5052915;28;20048;-67
2021/03/05 16:56:47;;;;;;;30.38;17.65;;;11.90;99.90;;;;;;5052356;28;20052;-68
2021/03/05 16:59:51;;;;;;;29.25;17.20;;;12.00;99.90;;;;;;5060557;28;20040;-68
2021/03/05 17:02:55;;;;;;;47.22;22.30;;;12.00;99.90;;;;;;5064903;28;20042;-68
2021/03/05 17:05:59;;;;;;;34.03;19.73;;;11.80;99.90;;;;;;5067321;28;20036;-68
2021/03/05 17:09:04;;;;;;;30.95;16.45;;;11.80;99.90;;;;;;5074189;28;20055;-67
2021/03/05 17:12:09;;;;;;;29.17;16.60;;;11.70;99.90;;;;;;5071639;28;20111;-68
2021/03/05 17:15:17;;;;;;;37.00;18.33;;;11.70;99.90;;;;;;5069976;28;20430;-66
2021/03/05 17:18:21;;;;;;;32.00;18.45;;;11.60;99.90;;;;;;5069798;28;20372;-67
2021/03/05 17:21:26;;;;;;;25.42;16.42;;;11.70;99.90;;;;;;5067588;28;20036;-67
2021/03/05 17:24:30;;;;;;;36.33;18.08;;;11.60;99.90;;;;;;5066582;28;20051;-67
2021/03/05 17:27:35;;;;;;;38.47;20.83;;;11.60;99.90;;;;;;5078627;28;20051;-67
2021/03/05 17:30:41;;;;;;;36.85;25.60;;;11.60;99.90;;;;;;5064474;28;20051;-66
2021/03/05 17:33:45;;;;;;;36.58;19.60;;;11.60;99.90;;;;;;5068104;28;20055;-68
2021/03/05 17:36:49;;;;;;;32.58;21.60;;;11.50;99.90;;;;;;5056520;28;20559;-67
2021/03/05 17:39:53;;;;;;;37.58;21.98;;;11.50;99.90;;;;;;5053817;28;20040;-66
2021/03/05 17:42:57;;;;;;;49.33;29.05;;;11.50;99.90;;;;;;5050287;28;20044;-67
2021/03/05 17:46:02;;;;;;;71.82;45.13;;;11.50;99.90;;;;;;5056621;28;20531;-67
2021/03/05 17:49:06;;;;;;;36.42;21.15;;;11.50;99.90;;;;;;5055865;28;20028;-67
2021/03/05 17:52:11;;;;;;;47.70;29.88;;;11.50;99.90;;;;;;5066658;28;20111;-67
2021/03/05 17:55:15;;;;;;;44.63;26.20;;;11.50;99.90;;;;;;5063557;28;20051;-66
2021/03/05 17:58:19;;;;;;;39.10;22.35;;;11.50;99.90;;;;;;5068938;28;20051;-67
2021/03/05 18:01:24;;;;;;;41.05;23.67;;;11.40;99.90;;;;;;5065655;28;20044;-67
2021/03/05 18:04:28;;;;;;;38.40;23.20;;;11.50;99.90;;;;;;5062262;28;20036;-67
2021/03/05 18:07:33;;;;;;;36.28;20.40;;;11.40;99.90;;;;;;5065430;28;20127;-65
2021/03/05 18:10:37;;;;;;;31.92;19.17;;;11.40;99.90;;;;;;5070382;28;20047;-66
2021/03/05 18:13:41;;;;;;;36.17;21.02;;;11.40;99.90;;;;;;5066501;28;20108;-67
2021/03/05 18:16:46;;;;;;;38.53;21.65;;;11.30;99.90;;;;;;5062071;28;20039;-67
2021/03/05 18:19:50;;;;;;;36.30;22.75;;;11.30;99.90;;;;;;5067697;28;20066;-66
2021/03/05 18:22:54;;;;;;;40.95;23.10;;;11.20;99.90;;;;;;5066769;28;20067;-67
2021/03/05 18:25:59;;;;;;;39.53;24.15;;;11.10;99.90;;;;;;5066502;28;20060;-66
2021/03/05 18:29:04;;;;;;;48.08;27.13;;;11.00;99.90;;;;;;5053576;28;20400;-66
2021/03/05 18:32:08;;;;;;;48.45;26.30;;;11.00;99.90;;;;;;5067778;28;20039;-66
2021/03/05 18:35:13;;;;;;;51.58;27.98;;;11.00;99.90;;;;;;5065373;28;20515;-66
2021/03/05 18:38:17;;;;;;;43.58;24.35;;;11.00;99.90;;;;;;5065065;28;20044;-67
2021/03/05 18:41:21;;;;;;;40.03;23.95;;;11.00;99.90;;;;;;5081290;28;20411;-67
2021/03/05 18:44:25;;;;;;;34.15;20.83;;;11.00;99.90;;;;;;5067490;28;20032;-66
2021/03/05 18:47:29;;;;;;;36.67;19.83;;;11.00;99.90;;;;;;5062162;28;20052;-67
2021/03/05 18:50:33;;;;;;;29.90;19.13;;;10.90;99.90;;;;;;5066974;28;20051;-65
2021/03/05 18:53:38;;;;;;;33.17;18.98;;;10.90;99.90;;;;;;5063803;28;20049;-66
2021/03/05 18:56:42;;;;;;;28.08;17.25;;;10.90;99.90;;;;;;5066203;28;20040;-67
2021/03/05 18:59:46;;;;;;;30.27;17.90;;;10.80;99.90;;;;;;5068395;28;20043;-67
2021/03/05 19:02:50;;;;;;;27.65;18.40;;;10.90;99.90;;;;;;5063724;28;20055;-66
2021/03/05 19:05:54;;;;;;;32.78;20.08;;;10.80;99.90;;;;;;5064155;28;20412;-67
2021/03/05 19:08:59;;;;;;;44.58;20.15;;;10.60;99.90;;;;;;5063827;28;20047;-66
2021/03/05 19:12:03;;;;;;;35.85;21.15;;;10.60;99.90;;;;;;5063551;28;20039;-66
2021/03/05 19:15:09;;;;;;;34.75;20.73;;;10.50;99.90;;;;;;5056526;28;20039;-66
2021/03/05 19:18:13;;;;;;;33.05;20.25;;;10.60;99.90;;;;;;5069041;28;20035;-66
2021/03/05 19:21:17;;;;;;;36.40;21.23;;;10.60;99.90;;;;;;5062706;28;20044;-66